createdAt,value
2019-01-04T00:03:09.511Z,19.00
2019-01-04T00:07:14.576Z,20.67
2019-01-04T00:11:19.899Z,17.70
2019-01-04T00:15:25.024Z,19.20
2019-01-04T00:19:30.154Z,18.57
2019-01-04T00:23:35.205Z,18.27
2019-01-04T00:27:40.248Z,16.63
2019-01-04T00:31:45.314Z,15.13
2019-01-04T00:35:50.614Z,20.97
2019-01-04T00:39:55.775Z,19.57
2019-01-04T00:44:19.866Z,20.23
2019-01-04T00:48:24.957Z,23.33
2019-01-04T00:52:30.012Z,19.48
2019-01-04T00:57:02.136Z,16.83
2019-01-04T01:01:45.355Z,25.73
2019-01-04T01:06:28.570Z,17.10
2019-01-04T01:11:11.859Z,24.97
2019-01-04T01:15:46.513Z,24.17
2019-01-04T01:20:37.082Z,23.17
2019-01-04T01:25:20.272Z,28.63
2019-01-04T01:30:03.483Z,25.27
2019-01-04T01:39:46.934Z,28.83
2019-01-04T01:44:30.250Z,31.77
2019-01-04T01:48:42.157Z,34.90
2019-01-04T01:52:49.298Z,34.53
2019-01-04T01:56:54.389Z,28.93
2019-01-04T02:00:59.451Z,33.48
2019-01-04T02:05:04.872Z,30.40
2019-01-04T02:09:10.963Z,21.53
2019-01-04T02:13:16.025Z,29.73
2019-01-04T02:17:21.076Z,22.37
2019-01-04T02:21:26.514Z,23.03
2019-01-04T02:25:31.582Z,26.77
2019-01-04T02:29:36.626Z,33.20
2019-01-04T02:33:41.621Z,30.83
2019-01-04T02:37:46.705Z,30.00
2019-01-04T02:41:51.782Z,28.90
2019-01-04T02:45:56.800Z,37.07
2019-01-04T02:50:01.982Z,37.83
2019-01-04T02:54:07.025Z,25.23
2019-01-04T02:58:12.003Z,24.47
2019-01-04T03:02:17.139Z,31.70
2019-01-04T03:06:22.252Z,21.77
2019-01-04T03:10:27.299Z,28.87
2019-01-04T03:14:32.263Z,23.93
2019-01-04T03:18:37.207Z,25.40
2019-01-04T03:22:42.241Z,21.67
2019-01-04T03:26:47.297Z,38.17
2019-01-04T03:30:54.288Z,37.20
2019-01-04T03:35:18.177Z,40.23
2019-01-04T03:39:23.209Z,36.93
2019-01-04T03:43:28.327Z,37.23
2019-01-04T03:47:33.422Z,41.87
2019-01-04T03:56:28.223Z,45.30
2019-01-04T04:00:33.307Z,44.30
2019-01-04T04:04:38.435Z,47.33
2019-01-04T04:08:43.507Z,52.70
2019-01-04T04:12:48.553Z,46.57
2019-01-04T04:16:53.594Z,49.43
2019-01-04T04:20:58.653Z,48.87
2019-01-04T04:25:03.768Z,61.50
2019-01-04T04:29:08.830Z,55.43
2019-01-04T04:33:13.892Z,51.30
2019-01-04T04:37:18.863Z,63.30
2019-01-04T04:41:23.755Z,59.60
2019-01-04T04:45:28.774Z,47.77
2019-01-04T04:49:33.797Z,56.40
2019-01-04T04:53:38.760Z,79.23
2019-01-04T04:57:44.061Z,72.80
2019-01-04T05:01:49.141Z,89.27
2019-01-04T05:05:54.113Z,90.62
2019-01-04T05:09:59.309Z,77.12
2019-01-04T05:14:06.015Z,81.83
2019-01-04T05:18:11.046Z,86.07
2019-01-04T05:22:16.083Z,91.43
2019-01-04T05:26:21.163Z,69.40
2019-01-04T05:30:26.271Z,85.60
2019-01-04T05:34:31.276Z,110.73
2019-01-04T05:38:36.265Z,89.03
2019-01-04T05:42:41.288Z,94.50
2019-01-04T05:46:46.348Z,96.33
2019-01-04T05:50:51.428Z,90.42
2019-01-04T05:54:56.616Z,89.23
2019-01-04T05:59:01.701Z,68.93
2019-01-04T06:03:06.856Z,78.90
2019-01-04T06:07:11.830Z,75.63
2019-01-04T06:11:16.868Z,68.23
2019-01-04T06:15:22.014Z,65.30
2019-01-04T06:19:27.111Z,62.63
2019-01-04T06:23:32.181Z,52.93
2019-01-04T06:27:37.275Z,67.53
2019-01-04T06:31:42.322Z,59.23
2019-01-04T06:35:47.396Z,69.57
2019-01-04T06:39:52.399Z,59.07
2019-01-04T06:43:57.377Z,70.27
2019-01-04T06:48:02.319Z,68.10
2019-01-04T06:52:07.386Z,65.00
2019-01-04T06:56:12.457Z,69.53
2019-01-04T07:00:17.530Z,68.07
2019-01-04T07:04:22.607Z,76.33
2019-01-04T07:08:27.681Z,64.20
2019-01-04T07:12:32.668Z,79.57
2019-01-04T07:16:37.791Z,91.80
2019-01-04T07:24:59.623Z,97.00
2019-01-04T07:29:04.697Z,100.60
2019-01-04T07:33:09.861Z,84.17
2019-01-04T07:37:14.904Z,88.03
2019-01-04T07:41:20.047Z,87.92
2019-01-04T07:45:25.199Z,82.53
2019-01-04T07:49:30.602Z,83.97
2019-01-04T07:53:35.642Z,104.80
2019-01-04T07:57:40.766Z,101.63
2019-01-04T08:01:45.893Z,95.50
2019-01-04T08:05:52.188Z,86.60
2019-01-04T08:09:57.205Z,117.17
2019-01-04T08:14:02.253Z,108.50
2019-01-04T08:18:07.428Z,125.13
2019-01-04T08:22:12.501Z,102.23
2019-01-04T08:26:17.913Z,150.20
2019-01-04T08:30:22.961Z,130.90
2019-01-04T08:34:27.938Z,125.33
2019-01-04T08:38:32.982Z,141.20
2019-01-04T08:42:38.071Z,131.33
2019-01-04T08:46:43.199Z,190.20
2019-01-04T08:50:48.284Z,156.57
2019-01-04T08:54:53.372Z,138.27
2019-01-04T08:58:58.503Z,139.37
2019-01-04T09:03:03.561Z,135.60
2019-01-04T09:07:08.932Z,148.93
2019-01-04T09:11:13.958Z,133.00
2019-01-04T09:15:18.933Z,130.47
2019-01-04T09:19:23.993Z,123.27
2019-01-04T09:23:29.096Z,110.97
2019-01-04T09:27:34.506Z,110.63
2019-01-04T09:31:39.671Z,121.00
2019-01-04T09:35:44.805Z,104.10
2019-01-04T09:39:49.889Z,81.53
2019-01-04T09:43:55.079Z,83.23
2019-01-04T09:48:00.177Z,77.70
2019-01-04T09:52:05.415Z,74.63
2019-01-04T09:56:10.625Z,67.83
2019-01-04T10:00:15.740Z,61.13
2019-01-04T10:04:20.890Z,50.17
2019-01-04T10:08:29.705Z,47.93
2019-01-04T10:12:34.768Z,36.93
2019-01-04T10:16:39.859Z,40.30
2019-01-04T10:20:44.907Z,39.80
2019-01-04T10:24:49.955Z,33.23
2019-01-04T10:28:54.924Z,34.53
2019-01-04T10:32:59.989Z,32.13
2019-01-04T10:37:05.120Z,33.30
2019-01-04T10:41:10.167Z,35.23
2019-01-04T10:45:15.206Z,33.53
2019-01-04T10:49:20.159Z,35.17
2019-01-04T10:53:25.194Z,35.53
2019-01-04T10:57:30.264Z,41.43
2019-01-04T11:01:35.422Z,38.43
2019-01-04T11:05:40.307Z,41.17
2019-01-04T11:09:45.615Z,39.53
2019-01-04T11:13:50.644Z,45.80
2019-01-04T11:17:55.634Z,48.00
2019-01-04T11:22:38.810Z,53.00
2019-01-04T11:27:22.022Z,54.97
2019-01-04T11:31:49.594Z,47.43
2019-01-04T11:36:32.877Z,49.60
2019-01-04T11:41:03.248Z,46.83
2019-01-04T11:45:34.898Z,53.40
2019-01-04T11:50:18.088Z,59.77
2019-01-04T11:54:26.814Z,61.50
2019-01-04T11:58:31.862Z,69.63
2019-01-04T12:02:36.938Z,59.37
2019-01-04T12:06:42.031Z,72.17
2019-01-04T12:10:47.121Z,66.63
2019-01-04T12:15:02.279Z,66.40
2019-01-04T12:19:08.966Z,66.50
2019-01-04T12:23:14.084Z,64.03
2019-01-04T12:27:30.981Z,65.60
2019-01-04T12:31:36.024Z,75.90
2019-01-04T12:35:41.049Z,63.60
2019-01-04T12:39:46.181Z,60.53
2019-01-04T12:43:51.243Z,54.77
2019-01-04T12:47:56.284Z,57.30
2019-01-04T12:52:01.309Z,55.87
2019-01-04T12:56:06.368Z,66.43
2019-01-04T13:00:13.596Z,65.53
2019-01-04T13:04:19.592Z,59.33
2019-01-04T13:08:24.750Z,60.57
2019-01-04T13:12:30.772Z,60.30
2019-01-04T13:16:36.261Z,59.27
2019-01-04T13:20:41.296Z,60.57
2019-01-04T13:24:46.426Z,61.07
2019-01-04T13:28:51.430Z,71.50
2019-01-04T13:32:56.645Z,66.13
2019-01-04T13:37:01.840Z,61.67
2019-01-04T13:41:06.959Z,76.20
2019-01-04T13:45:12.278Z,73.07
2019-01-04T13:49:17.287Z,81.23
2019-01-04T13:53:22.383Z,77.47
2019-01-04T13:57:27.479Z,93.50
2019-01-04T14:01:32.499Z,87.37
2019-01-04T14:05:37.586Z,90.70
2019-01-04T14:09:42.739Z,90.17
2019-01-04T14:13:47.850Z,92.13
2019-01-04T14:17:52.951Z,99.00
2019-01-04T14:21:57.944Z,123.87
2019-01-04T14:26:02.946Z,114.97
2019-01-04T14:30:09.966Z,101.80
2019-01-04T14:34:15.120Z,104.17
2019-01-04T14:38:20.294Z,111.03
2019-01-04T14:42:25.495Z,120.60
2019-01-04T14:46:30.459Z,126.67
2019-01-04T14:50:35.574Z,142.77
2019-01-04T14:54:40.655Z,162.20
2019-01-04T14:58:45.743Z,148.37
2019-01-04T15:02:50.844Z,157.93
2019-01-04T15:11:26.742Z,152.83
2019-01-04T15:15:31.935Z,140.13
2019-01-04T15:19:37.030Z,156.20
2019-01-04T15:23:42.130Z,162.13
2019-01-04T15:27:47.155Z,182.70
2019-01-04T15:31:52.505Z,168.30
2019-01-04T15:35:57.579Z,186.37
2019-01-04T15:40:02.756Z,189.30
2019-01-04T15:44:07.847Z,174.00
2019-01-04T15:48:12.987Z,175.87
2019-01-04T15:52:18.190Z,218.53
2019-01-04T15:56:23.321Z,191.67
2019-01-04T16:00:28.392Z,206.77
2019-01-04T16:04:33.570Z,193.73
2019-01-04T16:08:38.572Z,194.77
2019-01-04T16:12:43.675Z,191.27
2019-01-04T16:16:48.818Z,183.60
2019-01-04T16:20:54.228Z,212.17
2019-01-04T16:24:59.238Z,166.97
2019-01-04T16:29:04.323Z,193.17
2019-01-04T16:33:09.429Z,188.67
2019-01-04T16:37:14.790Z,183.33
2019-01-04T16:41:19.986Z,170.03
2019-01-04T16:45:25.102Z,214.43
2019-01-04T16:54:02.357Z,175.40
2019-01-04T16:58:07.532Z,188.63
2019-01-04T17:02:32.073Z,188.97
2019-01-04T17:06:37.317Z,192.93
2019-01-04T17:10:42.647Z,189.73
2019-01-04T17:14:48.180Z,193.35
2019-01-04T17:18:53.093Z,196.43
2019-01-04T17:22:58.193Z,181.93
2019-01-04T17:27:03.357Z,178.93
2019-01-04T17:31:08.443Z,190.40
2019-01-04T17:35:13.637Z,162.30
2019-01-04T17:39:18.745Z,183.23
2019-01-04T17:43:23.867Z,200.47
2019-01-04T17:47:29.077Z,169.00
2019-01-04T17:51:34.494Z,186.60
2019-01-04T17:55:39.643Z,187.43
2019-01-04T17:59:44.699Z,166.88
2019-01-04T18:03:49.893Z,177.37
2019-01-04T18:07:54.953Z,181.20
2019-01-04T18:12:00.087Z,178.43
2019-01-04T18:16:05.210Z,186.10
2019-01-04T18:20:11.102Z,185.00
2019-01-04T18:28:41.985Z,160.10
2019-01-04T18:32:47.098Z,183.37
2019-01-04T18:36:55.230Z,178.57
2019-01-04T18:41:00.347Z,153.97
2019-01-04T18:45:08.125Z,158.20
2019-01-04T18:49:13.292Z,162.20
2019-01-04T18:53:18.418Z,166.23
2019-01-04T18:57:23.559Z,190.07
2019-01-04T19:01:28.668Z,165.73
2019-01-04T19:05:33.720Z,184.13
2019-01-04T19:09:40.437Z,182.97
2019-01-04T19:13:45.525Z,160.53
2019-01-04T19:17:50.546Z,160.10
2019-01-04T19:21:55.936Z,176.67
2019-01-04T19:30:17.312Z,178.07
2019-01-04T19:34:22.456Z,165.43
2019-01-04T19:38:27.624Z,177.67
2019-01-04T19:42:32.722Z,185.05
2019-01-04T19:46:37.817Z,204.73
2019-01-04T19:50:42.852Z,187.30
2019-01-04T19:54:47.857Z,175.40
2019-01-04T19:58:53.038Z,187.97
2019-01-04T20:02:58.089Z,196.10
2019-01-04T20:08:01.926Z,186.80
2019-01-04T20:13:04.261Z,180.33
2019-01-04T20:17:28.958Z,192.37
2019-01-04T20:21:53.064Z,191.43
2019-01-04T20:26:17.275Z,174.43
2019-01-04T20:30:41.471Z,189.00
2019-01-04T20:35:05.744Z,194.17
2019-01-04T20:39:29.958Z,207.47
2019-01-04T20:43:53.936Z,191.93
2019-01-04T20:48:18.407Z,181.00
2019-01-04T20:57:19.227Z,195.47
2019-01-04T21:01:43.270Z,201.07
2019-01-04T21:06:07.409Z,168.50
2019-01-04T21:10:31.552Z,208.23
2019-01-04T21:14:54.100Z,185.97
2019-01-04T21:19:18.122Z,187.27
2019-01-04T21:23:32.952Z,199.30
2019-01-04T21:27:57.073Z,179.42
2019-01-04T21:32:21.110Z,210.43
2019-01-04T21:36:45.150Z,210.40
2019-01-04T21:45:54.652Z,207.07
2019-01-04T21:50:18.766Z,192.63
2019-01-04T21:54:43.240Z,217.77
2019-01-04T21:59:03.386Z,241.63
2019-01-04T22:08:03.531Z,244.63
2019-01-04T22:12:27.515Z,241.57
2019-01-04T22:16:51.502Z,260.47
2019-01-04T22:21:15.596Z,250.47
2019-01-04T22:25:39.690Z,255.00
2019-01-04T22:30:03.674Z,247.93
2019-01-04T22:34:27.688Z,280.37
2019-01-04T22:38:53.392Z,218.80
2019-01-04T22:43:17.399Z,256.30
2019-01-04T22:47:41.461Z,328.43
2019-01-04T22:52:05.531Z,329.27
2019-01-04T22:56:29.592Z,264.53
2019-01-04T23:00:54.707Z,245.83
2019-01-04T23:05:18.771Z,270.63
2019-01-04T23:09:33.874Z,251.13
2019-01-04T23:13:57.883Z,274.00
2019-01-04T23:18:23.913Z,266.53
2019-01-04T23:22:59.631Z,227.83
2019-01-04T23:27:23.647Z,217.17
2019-01-04T23:31:47.735Z,221.40
2019-01-04T23:36:17.343Z,277.70
2019-01-04T23:40:37.385Z,234.43
2019-01-04T23:45:01.437Z,205.90
2019-01-04T23:49:25.502Z,221.33
2019-01-04T23:53:49.916Z,224.33
2019-01-04T23:58:14.095Z,227.37
